createdAt,value
2019-03-29T00:01:40.844Z,10.10
2019-03-29T00:04:09.287Z,10.10
2019-03-29T00:06:37.756Z,10.10
2019-03-29T00:09:07.744Z,10.10
2019-03-29T00:11:36.446Z,10.10
2019-03-29T00:14:04.888Z,10.20
2019-03-29T00:16:33.318Z,10.20
2019-03-29T00:19:02.316Z,10.20
2019-03-29T00:21:30.892Z,10.20
2019-03-29T00:24:06.517Z,10.20
2019-03-29T00:26:29.503Z,10.30
2019-03-29T00:28:57.980Z,10.30
2019-03-29T00:31:26.411Z,10.30
2019-03-29T00:33:55.305Z,10.30
2019-03-29T00:36:23.735Z,10.30
2019-03-29T00:38:52.180Z,10.30
2019-03-29T00:41:20.634Z,10.30
2019-03-29T00:43:49.099Z,10.30
2019-03-29T00:46:17.558Z,10.20
2019-03-29T00:48:46.017Z,10.30
2019-03-29T00:51:14.454Z,10.30
2019-03-29T00:53:42.893Z,10.20
2019-03-29T00:56:11.324Z,10.20
2019-03-29T00:58:39.776Z,10.30
2019-03-29T01:01:08.209Z,10.30
2019-03-29T01:03:37.103Z,10.20
2019-03-29T01:06:05.765Z,10.20
2019-03-29T01:08:34.208Z,10.10
2019-03-29T01:11:02.637Z,10.20
2019-03-29T01:13:31.075Z,10.10
2019-03-29T01:15:59.518Z,10.10
2019-03-29T01:18:27.978Z,10.10
2019-03-29T01:20:56.403Z,10.10
2019-03-29T01:23:24.865Z,10.10
2019-03-29T01:25:53.313Z,10.10
2019-03-29T01:28:21.772Z,10.10
2019-03-29T01:30:50.218Z,10.10
2019-03-29T01:33:37.992Z,10.20
2019-03-29T01:36:06.437Z,10.20
2019-03-29T01:38:34.878Z,10.20
2019-03-29T01:41:03.321Z,10.20
2019-03-29T01:43:31.767Z,10.10
2019-03-29T01:46:00.219Z,10.20
2019-03-29T01:48:28.681Z,10.20
2019-03-29T01:50:57.115Z,10.20
2019-03-29T01:53:25.571Z,10.20
2019-03-29T01:55:54.032Z,10.30
2019-03-29T01:58:22.464Z,10.30
2019-03-29T02:00:50.916Z,10.30
2019-03-29T02:03:19.352Z,10.30
2019-03-29T02:05:47.788Z,10.30
2019-03-29T02:08:16.381Z,10.30
2019-03-29T02:10:44.851Z,10.20
2019-03-29T02:13:13.372Z,10.20
2019-03-29T02:15:41.816Z,10.20
2019-03-29T02:18:10.255Z,10.20
2019-03-29T02:20:38.706Z,10.20
2019-03-29T02:23:07.144Z,10.20
2019-03-29T02:25:35.580Z,10.20
2019-03-29T02:28:04.055Z,10.10
2019-03-29T02:30:32.612Z,10.10
2019-03-29T02:33:01.066Z,10.20
2019-03-29T02:35:29.518Z,10.10
2019-03-29T02:37:57.965Z,10.20
2019-03-29T02:40:26.426Z,10.10
2019-03-29T02:42:55.184Z,10.10
2019-03-29T02:45:23.770Z,10.10
2019-03-29T02:47:52.273Z,10.10
2019-03-29T02:50:20.716Z,10.10
2019-03-29T02:52:49.163Z,10.10
2019-03-29T02:55:17.593Z,10.10
2019-03-29T02:57:46.038Z,10.10
2019-03-29T03:00:15.178Z,10.00
2019-03-29T03:02:43.697Z,10.10
2019-03-29T03:05:12.203Z,10.00
2019-03-29T03:07:40.645Z,10.00
2019-03-29T03:10:10.587Z,10.00
2019-03-29T03:12:39.034Z,10.00
2019-03-29T03:15:09.106Z,10.00
2019-03-29T03:17:56.941Z,10.00
2019-03-29T03:20:25.377Z,10.00
2019-03-29T03:22:53.808Z,9.90
2019-03-29T03:25:22.263Z,9.90
2019-03-29T03:27:50.698Z,9.90
2019-03-29T03:30:19.245Z,9.90
2019-03-29T03:32:47.728Z,9.90
2019-03-29T03:35:16.275Z,9.90
2019-03-29T03:37:44.750Z,9.90
2019-03-29T03:40:13.424Z,9.90
2019-03-29T03:42:41.862Z,9.90
2019-03-29T03:45:10.870Z,9.90
2019-03-29T03:47:39.779Z,9.90
2019-03-29T03:50:10.328Z,9.80
2019-03-29T03:52:38.761Z,9.80
2019-03-29T03:55:07.365Z,9.80
2019-03-29T03:57:58.008Z,9.90
2019-03-29T04:00:29.708Z,9.90
2019-03-29T04:02:58.129Z,9.90
2019-03-29T04:05:26.668Z,9.90
2019-03-29T04:07:55.167Z,9.80
2019-03-29T04:10:23.608Z,9.80
2019-03-29T04:12:52.028Z,9.80
2019-03-29T04:15:20.486Z,9.80
2019-03-29T04:17:48.910Z,9.80
2019-03-29T04:20:17.360Z,9.80
2019-03-29T04:22:45.779Z,9.80
2019-03-29T04:25:14.267Z,9.80
2019-03-29T04:27:42.716Z,9.80
2019-03-29T04:30:11.286Z,9.80
2019-03-29T04:32:39.725Z,9.80
2019-03-29T04:35:08.231Z,9.80
2019-03-29T04:37:36.664Z,9.80
2019-03-29T04:40:08.722Z,9.80
2019-03-29T04:42:35.909Z,9.80
2019-03-29T04:45:05.692Z,9.80
2019-03-29T04:47:34.141Z,9.80
2019-03-29T04:50:02.710Z,9.80
2019-03-29T04:52:31.149Z,9.80
2019-03-29T04:54:59.604Z,9.80
2019-03-29T04:57:28.045Z,9.80
2019-03-29T04:59:56.488Z,9.80
2019-03-29T05:02:24.950Z,9.80
2019-03-29T05:04:53.377Z,9.80
2019-03-29T05:07:21.835Z,9.90
2019-03-29T05:09:50.270Z,9.90
2019-03-29T05:12:18.706Z,9.80
2019-03-29T05:14:47.135Z,9.80
2019-03-29T05:17:15.583Z,9.80
2019-03-29T05:19:44.715Z,9.80
2019-03-29T05:22:13.316Z,9.80
2019-03-29T05:24:41.766Z,9.90
2019-03-29T05:27:10.223Z,9.90
2019-03-29T05:29:38.656Z,9.90
2019-03-29T05:32:07.110Z,10.00
2019-03-29T05:34:35.549Z,10.00
2019-03-29T05:37:04.037Z,10.00
2019-03-29T05:39:32.546Z,10.00
2019-03-29T05:42:00.979Z,10.10
2019-03-29T05:44:29.444Z,10.10
2019-03-29T05:46:57.983Z,10.20
2019-03-29T05:49:30.087Z,10.20
2019-03-29T05:52:02.034Z,10.30
2019-03-29T05:54:30.554Z,10.30
2019-03-29T05:56:59.011Z,10.30
2019-03-29T05:59:27.470Z,10.30
2019-03-29T06:01:55.928Z,10.40
2019-03-29T06:04:24.357Z,10.40
2019-03-29T06:06:52.842Z,10.50
2019-03-29T06:09:21.287Z,10.50
2019-03-29T06:11:49.745Z,10.60
2019-03-29T06:14:18.178Z,10.60
2019-03-29T06:16:46.632Z,10.60
2019-03-29T06:19:15.071Z,10.70
2019-03-29T06:21:43.516Z,10.60
2019-03-29T06:24:11.960Z,10.60
2019-03-29T06:26:40.445Z,10.60
2019-03-29T06:29:08.893Z,10.60
2019-03-29T06:31:37.342Z,10.70
2019-03-29T06:34:05.810Z,10.80
2019-03-29T06:36:34.444Z,10.90
2019-03-29T06:39:05.415Z,10.90
2019-03-29T06:41:33.861Z,11.00
2019-03-29T06:44:02.310Z,11.10
2019-03-29T06:46:30.744Z,11.10
2019-03-29T06:48:59.182Z,11.20
2019-03-29T06:51:27.658Z,11.20
2019-03-29T06:53:56.092Z,11.30
2019-03-29T06:56:24.544Z,11.30
2019-03-29T06:58:53.008Z,11.30
2019-03-29T07:01:21.465Z,11.30
2019-03-29T07:03:50.312Z,11.40
2019-03-29T07:06:18.774Z,11.40
2019-03-29T07:08:47.192Z,11.30
2019-03-29T07:11:17.788Z,11.30
2019-03-29T07:13:56.758Z,11.30
2019-03-29T07:16:15.965Z,11.40
2019-03-29T07:18:44.444Z,11.40
2019-03-29T07:21:21.465Z,11.40
2019-03-29T07:23:43.090Z,11.50
2019-03-29T07:26:11.566Z,11.50
2019-03-29T07:28:40.058Z,11.60
2019-03-29T07:31:08.498Z,11.60
2019-03-29T07:33:54.893Z,11.60
2019-03-29T07:36:27.874Z,11.70
2019-03-29T07:38:56.370Z,11.80
2019-03-29T07:41:31.802Z,11.80
2019-03-29T07:43:54.983Z,11.90
2019-03-29T07:46:23.491Z,12.00
2019-03-29T07:48:51.988Z,12.00
2019-03-29T07:51:20.463Z,12.10
2019-03-29T07:53:48.909Z,12.20
2019-03-29T07:56:17.352Z,12.20
2019-03-29T07:58:45.793Z,12.10
2019-03-29T08:01:14.297Z,12.10
2019-03-29T08:03:43.050Z,12.20
2019-03-29T08:06:13.531Z,12.30
2019-03-29T08:08:42.230Z,12.40
2019-03-29T08:11:10.704Z,12.60
2019-03-29T08:13:39.147Z,12.70
2019-03-29T08:16:07.666Z,12.80
2019-03-29T08:18:36.195Z,12.80
2019-03-29T08:21:04.716Z,13.00
2019-03-29T08:23:34.572Z,13.00
2019-03-29T08:26:03.084Z,12.90
2019-03-29T08:28:31.590Z,12.90
2019-03-29T08:31:00.052Z,12.90
2019-03-29T08:33:28.556Z,13.00
2019-03-29T08:35:57.010Z,13.10
2019-03-29T08:38:25.448Z,13.20
2019-03-29T08:40:56.363Z,13.30
2019-03-29T08:43:24.088Z,13.30
2019-03-29T08:45:52.622Z,13.30
2019-03-29T08:48:21.235Z,13.40
2019-03-29T08:50:49.801Z,13.40
2019-03-29T08:53:18.314Z,13.50
2019-03-29T08:55:46.808Z,13.60
2019-03-29T08:58:15.260Z,13.80
2019-03-29T09:00:43.709Z,14.10
2019-03-29T09:03:12.173Z,14.40
2019-03-29T09:05:41.557Z,14.60
2019-03-29T09:08:10.001Z,14.70
2019-03-29T09:10:38.454Z,14.70
2019-03-29T09:13:06.902Z,14.80
2019-03-29T09:15:35.352Z,14.70
2019-03-29T09:18:03.890Z,14.70
2019-03-29T09:20:34.541Z,14.80
2019-03-29T09:23:02.557Z,14.80
2019-03-29T09:25:31.569Z,14.90
2019-03-29T09:28:00.015Z,14.80
2019-03-29T09:30:28.517Z,14.80
2019-03-29T09:32:56.956Z,14.80
2019-03-29T09:35:25.383Z,14.80
2019-03-29T09:37:56.388Z,14.80
2019-03-29T09:40:23.999Z,14.80
2019-03-29T09:43:06.659Z,14.80
2019-03-29T09:45:22.662Z,14.70
2019-03-29T09:47:51.361Z,14.70
2019-03-29T09:50:22.771Z,14.70
2019-03-29T09:52:51.474Z,14.80
2019-03-29T09:55:20.129Z,14.80
2019-03-29T09:57:48.596Z,14.90
2019-03-29T10:00:22.967Z,14.90
2019-03-29T10:02:48.525Z,14.80
2019-03-29T10:05:19.865Z,14.70
2019-03-29T10:07:47.163Z,14.70
2019-03-29T10:10:15.774Z,14.70
2019-03-29T10:12:44.325Z,14.70
2019-03-29T10:15:13.198Z,14.70
2019-03-29T10:17:41.633Z,14.90
2019-03-29T10:20:10.147Z,15.00
2019-03-29T10:22:38.698Z,15.10
2019-03-29T10:25:18.501Z,15.10
2019-03-29T10:27:37.652Z,15.00
2019-03-29T10:30:32.848Z,15.10
2019-03-29T10:33:01.280Z,14.80
2019-03-29T10:35:29.702Z,14.40
2019-03-29T10:37:58.146Z,14.50
2019-03-29T10:40:26.618Z,14.60
2019-03-29T10:42:57.955Z,14.80
2019-03-29T10:45:25.272Z,14.80
2019-03-29T10:47:53.711Z,14.90
2019-03-29T10:50:22.135Z,15.00
2019-03-29T10:53:10.012Z,15.10
2019-03-29T10:55:38.425Z,15.10
2019-03-29T10:58:09.631Z,14.90
2019-03-29T11:00:38.743Z,14.90
2019-03-29T11:03:07.638Z,15.10
2019-03-29T11:05:36.062Z,15.30
2019-03-29T11:08:04.670Z,15.50
2019-03-29T11:10:57.289Z,15.70
2019-03-29T11:13:25.749Z,16.00
2019-03-29T11:15:54.271Z,16.20
2019-03-29T11:18:22.767Z,16.60
2019-03-29T11:20:51.252Z,16.90
2019-03-29T11:23:19.727Z,17.20
2019-03-29T11:25:48.803Z,17.40
2019-03-29T11:28:17.593Z,17.30
2019-03-29T11:30:46.079Z,17.40
2019-03-29T11:33:14.525Z,17.40
2019-03-29T11:35:42.951Z,17.40
2019-03-29T11:38:11.417Z,17.40
2019-03-29T11:40:40.080Z,17.30
2019-03-29T11:43:08.561Z,17.40
2019-03-29T11:45:37.005Z,17.40
2019-03-29T11:48:08.835Z,17.00
2019-03-29T11:50:36.021Z,17.20
2019-03-29T11:53:04.520Z,17.40
2019-03-29T11:55:32.968Z,17.50
2019-03-29T11:58:01.396Z,17.30
2019-03-29T12:00:35.008Z,17.40
2019-03-29T12:03:03.713Z,17.50
2019-03-29T12:05:32.284Z,17.70
2019-03-29T12:08:00.770Z,17.80
2019-03-29T12:10:29.290Z,18.00
2019-03-29T12:12:57.717Z,18.20
2019-03-29T12:15:26.411Z,18.60
2019-03-29T12:17:55.096Z,18.90
2019-03-29T12:20:23.532Z,19.10
2019-03-29T12:22:52.206Z,19.10
2019-03-29T12:25:20.652Z,18.30
2019-03-29T12:27:49.071Z,18.80
2019-03-29T12:30:31.290Z,19.40
2019-03-29T12:32:47.720Z,19.20
2019-03-29T12:35:16.151Z,18.80
2019-03-29T12:37:44.574Z,18.60
2019-03-29T12:40:13.108Z,18.40
2019-03-29T12:42:41.536Z,18.50
2019-03-29T12:45:10.234Z,19.10
2019-03-29T12:47:38.706Z,19.90
2019-03-29T12:50:08.884Z,21.20
2019-03-29T12:52:37.312Z,21.40
2019-03-29T12:55:07.136Z,22.50
2019-03-29T12:57:38.717Z,24.00
2019-03-29T13:00:07.195Z,24.70
2019-03-29T13:02:35.663Z,25.50
2019-03-29T13:05:05.145Z,26.30
2019-03-29T13:07:33.587Z,27.30
2019-03-29T13:10:02.093Z,27.90
2019-03-29T13:12:30.523Z,28.90
2019-03-29T13:14:58.962Z,29.80
2019-03-29T13:17:28.652Z,30.50
2019-03-29T13:19:57.203Z,31.10
2019-03-29T13:22:25.857Z,31.30
2019-03-29T13:24:54.317Z,31.40
2019-03-29T13:27:22.768Z,32.30
2019-03-29T13:29:51.224Z,32.70
2019-03-29T13:32:19.663Z,33.50
2019-03-29T13:34:51.158Z,34.10
2019-03-29T13:37:18.270Z,34.40
2019-03-29T13:39:46.703Z,34.60
2019-03-29T13:42:15.150Z,34.50
2019-03-29T13:44:43.613Z,34.40
2019-03-29T13:47:12.059Z,34.90
2019-03-29T13:49:40.525Z,35.40
2019-03-29T13:52:08.949Z,35.30
2019-03-29T13:54:37.394Z,34.70
2019-03-29T13:57:05.868Z,34.80
2019-03-29T13:59:34.381Z,35.10
2019-03-29T14:02:02.813Z,35.20
2019-03-29T14:04:31.271Z,35.20
2019-03-29T14:06:59.722Z,35.70
2019-03-29T14:09:29.468Z,36.50
2019-03-29T14:11:57.976Z,36.90
2019-03-29T14:14:37.615Z,37.50
2019-03-29T14:16:56.593Z,37.80
2019-03-29T14:19:25.986Z,38.00
2019-03-29T14:21:54.637Z,36.70
2019-03-29T14:24:23.169Z,36.70
2019-03-29T14:26:53.146Z,36.20
2019-03-29T14:29:21.578Z,36.50
2019-03-29T14:31:50.020Z,36.90
2019-03-29T14:34:18.444Z,37.50
2019-03-29T14:36:46.875Z,37.80
2019-03-29T14:39:15.352Z,38.00
2019-03-29T14:41:43.798Z,38.80
2019-03-29T14:44:12.219Z,39.10
2019-03-29T14:46:40.666Z,39.40
2019-03-29T14:49:09.120Z,38.80
2019-03-29T14:51:37.641Z,38.60
2019-03-29T14:54:06.076Z,38.00
2019-03-29T14:56:34.537Z,37.50
2019-03-29T14:59:02.955Z,37.40
2019-03-29T15:01:31.392Z,36.90
2019-03-29T15:03:59.813Z,37.00
2019-03-29T15:06:28.335Z,35.60
2019-03-29T15:08:56.777Z,34.90
2019-03-29T15:11:25.208Z,34.50
2019-03-29T15:13:53.638Z,34.30
2019-03-29T15:16:22.076Z,33.80
2019-03-29T15:18:50.500Z,33.60
2019-03-29T15:21:18.943Z,33.40
2019-03-29T15:23:47.368Z,32.90
2019-03-29T15:26:15.807Z,32.70
2019-03-29T15:28:44.292Z,32.00
2019-03-29T15:31:12.785Z,32.10
2019-03-29T15:33:41.253Z,32.90
2019-03-29T15:36:09.693Z,33.00
2019-03-29T15:38:38.123Z,32.60
2019-03-29T15:41:06.575Z,32.20
2019-03-29T15:43:35.068Z,31.80
2019-03-29T15:46:03.518Z,31.70
2019-03-29T15:48:31.945Z,31.50
2019-03-29T15:51:00.391Z,31.60
2019-03-29T15:53:28.818Z,31.20
2019-03-29T15:55:57.254Z,31.30
2019-03-29T15:58:25.681Z,31.10
2019-03-29T16:00:54.141Z,31.00
2019-03-29T16:03:22.649Z,30.90
2019-03-29T16:05:51.080Z,30.70
2019-03-29T16:08:22.556Z,29.90
2019-03-29T16:10:51.195Z,29.70
2019-03-29T16:13:19.839Z,29.60
2019-03-29T16:15:50.013Z,29.50
2019-03-29T16:18:18.669Z,29.40
2019-03-29T16:20:49.244Z,29.20
2019-03-29T16:23:17.806Z,29.00
2019-03-29T16:25:46.440Z,28.70
2019-03-29T16:28:16.904Z,28.40
2019-03-29T16:30:47.136Z,27.90
2019-03-29T16:33:23.463Z,27.30
2019-03-29T16:35:56.599Z,26.50
2019-03-29T16:41:18.755Z,25.10
2019-03-29T16:43:55.731Z,25.00
2019-03-29T16:46:33.310Z,24.80
2019-03-29T16:49:03.573Z,24.70
2019-03-29T16:51:32.279Z,24.30
2019-03-29T16:54:00.752Z,23.90
2019-03-29T16:56:32.182Z,23.60
2019-03-29T16:59:06.737Z,23.30
2019-03-29T17:01:35.541Z,22.80
2019-03-29T17:04:07.737Z,22.50
2019-03-29T17:06:36.674Z,22.10
2019-03-29T17:09:08.456Z,21.70
2019-03-29T17:11:38.904Z,21.30
2019-03-29T17:14:09.470Z,20.80
2019-03-29T17:16:38.346Z,20.60
2019-03-29T17:19:08.642Z,20.10
2019-03-29T17:21:38.602Z,19.80
2019-03-29T17:24:08.483Z,19.80
2019-03-29T17:26:37.121Z,19.60
2019-03-29T17:29:05.671Z,19.30
2019-03-29T17:31:34.248Z,19.00
2019-03-29T17:34:02.865Z,18.90
2019-03-29T17:36:31.897Z,18.80
2019-03-29T17:39:00.610Z,18.50
2019-03-29T17:41:29.177Z,18.30
2019-03-29T17:43:57.656Z,18.10
2019-03-29T17:46:27.842Z,17.90
2019-03-29T17:48:58.030Z,17.80
2019-03-29T17:51:26.687Z,17.70
2019-03-29T17:53:55.324Z,17.50
2019-03-29T17:56:23.849Z,17.40
2019-03-29T17:58:52.341Z,17.30
2019-03-29T18:01:20.870Z,17.20
2019-03-29T18:03:49.427Z,17.00
2019-03-29T18:06:18.098Z,16.80
2019-03-29T18:08:46.683Z,16.70
2019-03-29T18:11:15.306Z,16.50
2019-03-29T18:13:43.890Z,16.30
2019-03-29T18:16:12.538Z,16.20
2019-03-29T18:18:41.152Z,16.00
2019-03-29T18:21:09.776Z,16.00
2019-03-29T18:23:38.635Z,15.90
2019-03-29T18:26:07.235Z,15.80
2019-03-29T18:28:37.991Z,15.80
2019-03-29T18:31:05.938Z,15.80
2019-03-29T18:33:34.467Z,15.70
2019-03-29T18:36:04.947Z,15.60
2019-03-29T18:38:39.154Z,15.30
2019-03-29T18:41:07.798Z,15.20
2019-03-29T18:43:36.576Z,15.10
2019-03-29T18:46:05.204Z,14.90
2019-03-29T18:48:35.664Z,14.80
2019-03-29T18:51:04.574Z,14.70
2019-03-29T18:53:35.979Z,14.70
2019-03-29T18:56:06.030Z,14.60
2019-03-29T18:58:34.652Z,14.50
2019-03-29T19:01:09.745Z,14.50
2019-03-29T19:03:38.457Z,14.50
2019-03-29T19:06:07.005Z,14.40
2019-03-29T19:08:37.472Z,14.30
2019-03-29T19:11:06.089Z,14.20
2019-03-29T19:13:34.670Z,14.20
2019-03-29T19:16:07.938Z,14.10
2019-03-29T19:18:36.583Z,14.10
2019-03-29T19:21:05.361Z,14.00
2019-03-29T19:23:34.085Z,13.90
2019-03-29T19:26:04.440Z,13.80
2019-03-29T19:28:34.567Z,13.70
2019-03-29T19:31:04.968Z,13.70
2019-03-29T19:33:33.577Z,13.70
2019-03-29T19:36:02.130Z,13.60
2019-03-29T19:38:30.627Z,13.60
2019-03-29T19:40:59.085Z,13.60
2019-03-29T19:43:32.214Z,13.60
2019-03-29T19:46:00.830Z,13.50
2019-03-29T19:48:29.297Z,13.40
2019-03-29T19:50:57.760Z,13.50
2019-03-29T19:53:26.258Z,13.40
2019-03-29T19:55:54.777Z,13.20
2019-03-29T19:58:24.233Z,13.00
2019-03-29T20:00:54.324Z,13.00
2019-03-29T20:03:22.981Z,12.90
2019-03-29T20:05:53.295Z,12.80
2019-03-29T20:08:21.950Z,12.70
2019-03-29T20:10:50.577Z,12.70
2019-03-29T20:13:19.223Z,12.50
2019-03-29T20:15:47.835Z,12.50
2019-03-29T20:18:16.540Z,12.40
2019-03-29T20:20:45.139Z,12.40
2019-03-29T20:23:13.765Z,12.40
2019-03-29T20:25:42.390Z,12.30
2019-03-29T20:28:12.156Z,12.30
2019-03-29T20:30:40.722Z,12.30
2019-03-29T20:33:09.410Z,12.20
2019-03-29T20:35:37.983Z,12.00
2019-03-29T20:38:06.569Z,12.00
2019-03-29T20:40:39.915Z,11.90
2019-03-29T20:43:10.238Z,11.90
2019-03-29T20:45:43.129Z,12.00
2019-03-29T20:48:11.784Z,12.00
2019-03-29T20:50:40.490Z,11.80
2019-03-29T20:53:09.058Z,11.80
2019-03-29T20:55:39.257Z,11.70
2019-03-29T20:58:07.977Z,11.60
2019-03-29T21:00:38.304Z,11.60
2019-03-29T21:03:07.108Z,11.60
2019-03-29T21:05:35.727Z,11.40
2019-03-29T21:08:06.260Z,11.40
2019-03-29T21:10:34.907Z,11.40
2019-03-29T21:13:07.019Z,11.40
2019-03-29T21:15:34.000Z,11.40
2019-03-29T21:18:02.555Z,11.40
2019-03-29T21:20:31.162Z,11.30
2019-03-29T21:22:59.845Z,11.30
2019-03-29T21:25:28.433Z,11.30
2019-03-29T21:27:56.982Z,11.20
2019-03-29T21:30:27.209Z,11.20
2019-03-29T21:32:55.825Z,11.10
2019-03-29T21:35:27.427Z,11.10
2019-03-29T21:37:56.172Z,11.00
2019-03-29T21:40:24.712Z,10.90
2019-03-29T21:42:53.233Z,11.00
2019-03-29T21:45:28.691Z,11.00
2019-03-29T21:48:02.327Z,10.90
2019-03-29T21:50:22.214Z,10.80
2019-03-29T21:52:50.670Z,10.80
2019-03-29T21:55:19.138Z,10.80
2019-03-29T21:57:47.912Z,10.70
2019-03-29T22:00:17.231Z,10.70
2019-03-29T22:02:48.730Z,10.70
2019-03-29T22:08:10.160Z,10.60
2019-03-29T22:10:38.600Z,10.40
2019-03-29T22:13:07.035Z,10.30
2019-03-29T22:15:35.472Z,10.20
2019-03-29T22:18:36.851Z,10.20
2019-03-29T22:20:53.415Z,10.20
2019-03-29T22:23:21.861Z,10.10
2019-03-29T22:25:50.289Z,10.10
2019-03-29T22:28:18.725Z,9.90
2019-03-29T22:30:47.183Z,9.70
2019-03-29T22:33:15.664Z,9.50
2019-03-29T22:35:44.096Z,9.40
2019-03-29T22:38:12.537Z,9.30
2019-03-29T22:40:40.973Z,9.10
2019-03-29T22:43:09.395Z,8.90
2019-03-29T22:45:37.837Z,8.90
2019-03-29T22:48:06.276Z,8.80
2019-03-29T22:50:34.716Z,8.70
2019-03-29T22:53:03.181Z,8.60
2019-03-29T22:55:31.656Z,8.50
2019-03-29T22:58:00.896Z,8.40
2019-03-29T23:00:34.046Z,8.30
2019-03-29T23:03:02.477Z,8.20
2019-03-29T23:05:30.900Z,8.20
2019-03-29T23:07:59.352Z,8.10
2019-03-29T23:10:27.790Z,8.10
2019-03-29T23:12:56.280Z,8.00
2019-03-29T23:15:24.729Z,7.90
2019-03-29T23:17:53.146Z,7.80
2019-03-29T23:20:21.591Z,7.70
2019-03-29T23:22:50.027Z,7.60
2019-03-29T23:25:18.455Z,7.60
2019-03-29T23:27:47.187Z,7.60
2019-03-29T23:30:16.336Z,7.50
2019-03-29T23:32:44.762Z,7.50
2019-03-29T23:35:13.262Z,7.40
2019-03-29T23:37:41.692Z,7.40
2019-03-29T23:40:29.468Z,7.40
2019-03-29T23:42:57.888Z,7.30
2019-03-29T23:45:26.338Z,7.30
2019-03-29T23:47:54.765Z,7.30
2019-03-29T23:50:23.192Z,7.20
2019-03-29T23:52:51.612Z,7.30
2019-03-29T23:55:20.065Z,7.20
2019-03-29T23:57:48.505Z,7.10
